Time;durP1;ratioP1;P1;durP2;ratioP2;P2;SDS_P1;SDS_P2;PMS_P1;PMS_P2;Temp;Humidity;BMP_temperature;BMP_pressure;BME280_temperature;BME280_humidity;BME280_pressure;Samples;Min_cycle;Max_cycle;Signal;HPM_P1;HPM_P2
2021/11/02 00:01:25;;;;;;;;;;;11.00;92.40;;;;;;4332463;33;21769;-76
2021/11/02 00:04:00;;;;;;;;;;;11.00;92.40;;;;;;4307937;33;19994;-76
2021/11/02 00:06:35;;;;;;;;;;;10.90;92.30;;;;;;4331070;33;39997;-75
2021/11/02 00:09:11;;;;;;;;;;;10.90;92.30;;;;;;4318655;33;25681;-75
2021/11/02 00:11:46;;;;;;;;;;;10.90;92.70;;;;;;4319976;33;20006;-75
2021/11/02 00:14:21;;;;;;;;;;;10.90;92.40;;;;;;4319246;33;20013;-75
2021/11/02 00:16:57;;;;;;;;;;;10.80;92.40;;;;;;4331521;33;20083;-75
2021/11/02 00:19:34;;;;;;;;;;;10.80;92.40;;;;;;4332470;33;20005;-76
2021/11/02 00:22:16;;;;;;;;;;;10.80;92.40;;;;;;4307712;33;20403;-76
2021/11/02 00:27:25;;;;;;;;;;;10.80;92.40;;;;;;4332123;33;30180;-75
2021/11/02 00:30:00;;;;;;;;;;;10.70;92.40;;;;;;4319698;33;20029;-75
2021/11/02 00:32:35;;;;;;;;;;;10.70;92.50;;;;;;4331074;33;25419;-75
2021/11/02 00:35:10;;;;;;;;;;;10.70;92.50;;;;;;4332865;33;20450;-75
2021/11/02 00:37:43;;;;;;;;;;;10.60;92.50;;;;;;4332728;33;20012;-75
2021/11/02 00:40:16;;;;;;;;;;;10.60;92.60;;;;;;4319459;33;20522;-75
2021/11/02 00:42:54;;;;;;;;;;;10.50;92.60;;;;;;4332512;33;20025;-75
2021/11/02 00:45:34;;;;;;;;;;;10.50;92.60;;;;;;4332137;33;20221;-75
2021/11/02 00:48:10;;;;;;;;;;;10.40;92.60;;;;;;4330641;33;29077;-75
2021/11/02 00:50:43;;;;;;;;;;;10.40;92.70;;;;;;4319270;33;20406;-75
2021/11/02 00:53:18;;;;;;;;;;;10.40;92.70;;;;;;4331451;33;40799;-76
2021/11/02 00:55:52;;;;;;;;;;;10.40;92.70;;;;;;4318398;33;39971;-75
2021/11/02 00:58:28;;;;;;;;;;;10.40;92.70;;;;;;4330971;33;20394;-75
2021/11/02 01:00:55;;;;;;;;;;;10.40;92.70;;;;;;4318041;33;27748;-75
2021/11/02 01:03:28;;;;;;;;;;;10.30;92.70;;;;;;4317544;33;31902;-75
2021/11/02 01:06:00;;;;;;;;;;;10.30;92.70;;;;;;4317836;33;35154;-75
2021/11/02 01:08:32;;;;;;;;;;;10.30;92.70;;;;;;4331741;33;29529;-75
2021/11/02 01:11:04;;;;;;;;;;;10.30;92.70;;;;;;4331496;33;32792;-76
2021/11/02 01:13:40;;;;;;;;;;;10.30;92.70;;;;;;4319277;33;20441;-75
2021/11/02 01:16:18;;;;;;;;;;;10.30;92.70;;;;;;4317787;33;42839;-75
2021/11/02 01:18:53;;;;;;;;;;;10.30;92.70;;;;;;4332188;33;20428;-74
2021/11/02 01:21:29;;;;;;;;;;;10.30;92.80;;;;;;4306891;33;20017;-75
2021/11/02 01:24:04;;;;;;;;;;;10.20;92.80;;;;;;4318481;33;20010;-74
2021/11/02 01:26:37;;;;;;;;;;;10.20;92.80;;;;;;4330817;33;44218;-76
2021/11/02 01:29:12;;;;;;;;;;;10.20;92.80;;;;;;4331795;33;20014;-75
2021/11/02 01:31:48;;;;;;;;;;;10.10;92.80;;;;;;4331139;33;39038;-74
2021/11/02 01:34:23;;;;;;;;;;;10.10;92.90;;;;;;4318107;33;25613;-74
2021/11/02 01:36:55;;;;;;;;;;;10.10;92.90;;;;;;4305986;33;20002;-75
2021/11/02 01:39:30;;;;;;;;;;;10.10;92.90;;;;;;4318415;33;20005;-75
2021/11/02 01:42:04;;;;;;;;;;;10.10;93.00;;;;;;4306389;33;20002;-75
2021/11/02 01:44:34;;;;;;;;;;;10.00;93.00;;;;;;4329930;33;37151;-75
2021/11/02 01:47:05;;;;;;;;;;;10.00;93.00;;;;;;4317137;33;37518;-76
2021/11/02 01:49:38;;;;;;;;;;;10.00;93.00;;;;;;4331324;33;21546;-75
2021/11/02 01:52:14;;;;;;;;;;;10.00;93.00;;;;;;4316985;33;29286;-75
2021/11/02 01:54:52;;;;;;;;;;;10.00;93.00;;;;;;4318729;33;20009;-75
2021/11/02 01:57:33;;;;;;;;;;;10.00;92.90;;;;;;4318503;33;20403;-75
2021/11/02 02:00:15;;;;;;;;;;;10.00;93.00;;;;;;4319333;33;20009;-75
2021/11/02 02:03:14;;;;;;;;;;;10.00;93.00;;;;;;4318821;33;20044;-75
2021/11/02 02:06:00;;;;;;;;;;;9.90;93.00;;;;;;4321634;33;20053;-75
2021/11/02 02:08:39;;;;;;;;;;;9.90;93.00;;;;;;4308916;33;27167;-76
2021/11/02 02:11:30;;;;;;;;;;;9.90;92.90;;;;;;4333775;33;20039;-75
2021/11/02 02:14:12;;;;;;;;;;;9.90;92.90;;;;;;4321562;33;20021;-74
2021/11/02 02:16:45;;;;;;;;;;;9.90;92.90;;;;;;4332902;33;33563;-75
2021/11/02 02:19:31;;;;;;;;;;;9.90;92.90;;;;;;4333488;33;36928;-74
2021/11/02 02:22:17;;;;;;;;;;;9.90;92.90;;;;;;4320923;33;20391;-75
2021/11/02 02:25:03;;;;;;;;;;;9.90;93.00;;;;;;4320488;33;20028;-75
2021/11/02 02:27:43;;;;;;;;;;;9.80;93.00;;;;;;4334651;33;20069;-75
2021/11/02 02:30:18;;;;;;;;;;;9.80;93.00;;;;;;4320695;33;20428;-75
2021/11/02 02:32:51;;;;;;;;;;;9.80;93.30;;;;;;4321204;33;20010;-75
2021/11/02 02:35:28;;;;;;;;;;;9.80;93.00;;;;;;4320715;33;20057;-75
2021/11/02 02:38:07;;;;;;;;;;;9.80;93.00;;;;;;4320130;33;42845;-75
2021/11/02 02:40:39;;;;;;;;;;;9.70;93.00;;;;;;4307692;33;37818;-75
2021/11/02 02:43:09;;;;;;;;;;;9.80;93.10;;;;;;4333624;33;31374;-75
2021/11/02 02:45:42;;;;;;;;;;;9.80;93.10;;;;;;4320901;33;20015;-74
2021/11/02 02:48:14;;;;;;;;;;;9.70;93.10;;;;;;4334817;33;20014;-75
2021/11/02 02:50:47;;;;;;;;;;;9.70;93.10;;;;;;4320199;33;20209;-74
2021/11/02 02:53:20;;;;;;;;;;;9.70;93.20;;;;;;4320042;33;32719;-75
2021/11/02 02:55:52;;;;;;;;;;;9.70;93.20;;;;;;4333241;33;40248;-74
2021/11/02 02:58:26;;;;;;;;;;;9.60;93.20;;;;;;4333940;33;20014;-75
2021/11/02 03:01:02;;;;;;;;;;;9.70;93.20;;;;;;4334031;33;20052;-74
2021/11/02 03:03:41;;;;;;;;;;;9.70;93.20;;;;;;4333862;33;20060;-75
2021/11/02 03:06:17;;;;;;;;;;;9.70;93.20;;;;;;4320643;33;20120;-75
2021/11/02 03:08:56;;;;;;;;;;;9.70;93.20;;;;;;4320727;33;20062;-76
2021/11/02 03:11:32;;;;;;;;;;;9.70;93.20;;;;;;4320618;33;20061;-75
2021/11/02 03:14:05;;;;;;;;;;;9.60;93.20;;;;;;4332692;33;32423;-75
2021/11/02 03:19:57;;;;;;;;;;;9.70;93.20;;;;;;4333851;33;20061;-75
2021/11/02 03:50:57;;;;;;;;;;;9.70;93.10;;;;;;4333371;33;20350;-76
2021/11/02 05:09:13;;;;;;;;;;;9.60;93.30;;;;;;4332160;33;20020;-74
2021/11/02 05:49:56;;;;;;;;;;;9.50;93.50;;;;;;4318125;33;21031;-75
2021/11/02 05:58:17;;;;;;;;;;;9.60;93.50;;;;;;4299459;33;40433;-74
2021/11/02 06:03:57;;;;;;;;;;;9.60;93.40;;;;;;4284655;33;44657;-75
2021/11/02 06:09:17;;;;;;;;;;;9.60;93.50;;;;;;4331718;33;20050;-74
2021/11/02 06:28:52;;;;;;;;;;;9.70;93.50;;;;;;4331803;33;20441;-74
2021/11/02 06:31:32;;;;;;;;;;;9.60;93.50;;;;;;4330674;33;20093;-75
2021/11/02 06:34:07;;;;;;;;;;;9.60;93.60;;;;;;4331706;33;20072;-75
2021/11/02 06:47:56;;;;;;;;;;;9.50;93.70;;;;;;4300195;33;20090;-74
2021/11/02 06:50:59;;;;;;;;;;;9.50;93.70;;;;;;4321747;33;20040;-75
2021/11/02 07:18:27;;;;;;;;;;;9.50;93.90;;;;;;4333779;33;20014;-74
2021/11/02 07:21:05;;;;;;;;;;;9.50;93.90;;;;;;4320299;33;20017;-75
2021/11/02 07:23:49;;;;;;;;;;;9.50;94.00;;;;;;4333458;33;20021;-74
2021/11/02 07:29:27;;;;;;;;;;;9.60;94.00;;;;;;4319335;33;20009;-74
2021/11/02 08:45:30;;;;;;;;;;;9.80;94.30;;;;;;4331651;33;38378;-74
2021/11/02 08:48:02;;;;;;;;;;;9.80;94.30;;;;;;4305786;33;47137;-74
2021/11/02 08:51:13;;;;;;;;;;;9.80;94.30;;;;;;4318673;33;41265;-74
2021/11/02 08:53:27;;;;;;;;;;;9.80;94.30;;;;;;4327222;33;44344;-74
2021/11/02 08:55:58;;;;;;;;;;;9.80;94.30;;;;;;4331546;33;20013;-74
2021/11/02 08:58:29;;;;;;;;;;;9.90;94.40;;;;;;4318844;33;20411;-74
2021/11/02 09:00:59;;;;;;;;;;;9.90;94.40;;;;;;4332462;33;20006;-74
2021/11/02 09:03:29;;;;;;;;;;;9.90;94.40;;;;;;4306804;33;20006;-75
2021/11/02 09:05:59;;;;;;;;;;;9.90;94.40;;;;;;4331151;33;41785;-75
2021/11/02 09:08:28;;;;;;;;;;;9.90;94.50;;;;;;4318165;33;39558;-74
2021/11/02 09:10:57;;;;;;;;;;;10.00;94.50;;;;;;4317512;33;46779;-75
2021/11/02 09:13:29;;;;;;;;;;;10.00;94.40;;;;;;4330792;33;35244;-74
2021/11/02 09:15:59;;;;;;;;;;;10.00;94.40;;;;;;4318002;33;28132;-74
2021/11/02 09:18:32;;;;;;;;;;;10.10;94.40;;;;;;4331221;33;41764;-74
2021/11/02 09:21:00;;;;;;;;;;;10.00;94.40;;;;;;4317646;33;46254;-74
2021/11/02 09:23:28;;;;;;;;;;;10.10;94.40;;;;;;4317569;33;33685;-74
2021/11/02 09:25:55;;;;;;;;;;;10.10;94.40;;;;;;4317503;33;39868;-74
2021/11/02 09:28:24;;;;;;;;;;;10.10;94.50;;;;;;4330905;33;43157;-74
2021/11/02 09:30:52;;;;;;;;;;;10.10;94.50;;;;;;4305123;33;43630;-74
2021/11/02 09:33:21;;;;;;;;;;;10.10;94.40;;;;;;4331656;33;20106;-74
2021/11/02 09:36:02;;;;;;;;;;;10.10;94.40;;;;;;4317862;33;30868;-74
2021/11/02 09:38:32;;;;;;;;;;;10.10;94.40;;;;;;4331736;33;20017;-74
2021/11/02 09:41:08;;;;;;;;;;;10.10;94.40;;;;;;4318746;33;20023;-74
2021/11/02 09:43:54;;;;;;;;;;;10.10;94.30;;;;;;4331544;33;20021;-74
2021/11/02 09:46:30;;;;;;;;;;;10.20;94.40;;;;;;4306124;33;24273;-75
2021/11/02 09:49:01;;;;;;;;;;;10.20;94.40;;;;;;4317180;33;44056;-74
2021/11/02 09:51:40;;;;;;;;;;;10.20;94.40;;;;;;4306192;33;20014;-74
2021/11/02 09:54:15;;;;;;;;;;;10.20;94.50;;;;;;4317486;33;44506;-74
2021/11/02 09:56:51;;;;;;;;;;;10.20;94.40;;;;;;4332214;33;20017;-74
2021/11/02 09:59:19;;;;;;;;;;;10.20;94.40;;;;;;4331672;33;20437;-74
2021/11/02 10:02:13;;;;;;;;;;;10.30;94.40;;;;;;4317809;33;20044;-74
2021/11/02 10:04:49;;;;;;;;;;;10.30;94.30;;;;;;4306665;33;20416;-74
2021/11/02 10:07:21;;;;;;;;;;;10.30;94.30;;;;;;4332019;33;20031;-74
2021/11/02 10:09:55;;;;;;;;;;;10.30;94.40;;;;;;4317985;33;20013;-75
2021/11/02 10:12:24;;;;;;;;;;;10.30;94.30;;;;;;4331749;33;20010;-74
2021/11/02 10:15:07;;;;;;;;;;;10.30;94.30;;;;;;4331482;33;20474;-73
2021/11/02 10:17:57;;;;;;;;;;;10.30;94.40;;;;;;4330802;33;20021;-74
2021/11/02 10:20:39;;;;;;;;;;;10.30;94.40;;;;;;4318351;33;20010;-73
2021/11/02 10:23:07;;;;;;;;;;;10.30;94.40;;;;;;4330975;33;32220;-74
2021/11/02 10:25:53;;;;;;;;;;;10.30;94.60;;;;;;4308251;33;32139;-74
2021/11/02 10:28:20;;;;;;;;;;;10.30;94.60;;;;;;4319649;33;42751;-74
2021/11/02 10:31:01;;;;;;;;;;;10.30;94.60;;;;;;4320180;33;43675;-74
2021/11/02 10:33:31;;;;;;;;;;;10.30;94.70;;;;;;4333407;33;44359;-74
2021/11/02 10:36:19;;;;;;;;;;;10.40;94.80;;;;;;4320502;33;20004;-74
2021/11/02 10:39:00;;;;;;;;;;;10.40;94.80;;;;;;4333172;33;44303;-74
2021/11/02 10:41:33;;;;;;;;;;;10.40;94.70;;;;;;4309333;33;19998;-74
2021/11/02 10:44:05;;;;;;;;;;;10.50;94.70;;;;;;4319876;33;43358;-74
2021/11/02 10:46:36;;;;;;;;;;;10.50;94.70;;;;;;4332566;33;44656;-75
2021/11/02 10:49:26;;;;;;;;;;;10.60;94.70;;;;;;4332978;33;42184;-75
2021/11/02 10:52:04;;;;;;;;;;;10.60;94.70;;;;;;4329905;33;44335;-75
2021/11/02 10:54:40;;;;;;;;;;;10.60;94.60;;;;;;4319485;33;44444;-74
2021/11/02 10:57:15;;;;;;;;;;;10.60;94.60;;;;;;4333089;33;42227;-75
2021/11/02 10:59:46;;;;;;;;;;;10.60;94.50;;;;;;4332632;33;43201;-74
2021/11/02 11:02:25;;;;;;;;;;;10.70;94.50;;;;;;4319447;33;41638;-74
2021/11/02 11:04:54;;;;;;;;;;;10.70;94.50;;;;;;4307036;33;45981;-74
2021/11/02 11:07:21;;;;;;;;;;;10.70;94.50;;;;;;4332897;33;39894;-74
2021/11/02 11:09:51;;;;;;;;;;;10.70;94.50;;;;;;4332404;33;41905;-75
2021/11/02 11:12:19;;;;;;;;;;;10.70;94.50;;;;;;4331325;33;44176;-74
2021/11/02 11:14:46;;;;;;;;;;;10.70;94.50;;;;;;4332450;33;44230;-74
2021/11/02 11:17:16;;;;;;;;;;;10.70;94.50;;;;;;4331331;33;39483;-74
2021/11/02 11:19:58;;;;;;;;;;;10.70;94.50;;;;;;4333700;33;20024;-74
2021/11/02 11:22:28;;;;;;;;;;;10.70;94.60;;;;;;4332820;33;30930;-74
2021/11/02 11:25:00;;;;;;;;;;;10.70;94.60;;;;;;4319123;33;43783;-74
2021/11/02 11:27:27;;;;;;;;;;;10.60;94.50;;;;;;4333240;33;26929;-74
2021/11/02 11:30:07;;;;;;;;;;;10.60;94.60;;;;;;4332651;33;42812;-74
2021/11/02 11:32:39;;;;;;;;;;;10.60;94.60;;;;;;4319937;33;24387;-75
2021/11/02 11:35:08;;;;;;;;;;;10.70;94.60;;;;;;4319094;33;39110;-75
2021/11/02 11:37:39;;;;;;;;;;;10.60;94.60;;;;;;4332106;33;38679;-74
2021/11/02 11:40:08;;;;;;;;;;;10.60;94.60;;;;;;4332571;33;43625;-74
2021/11/02 11:42:35;;;;;;;;;;;10.70;94.60;;;;;;4332223;33;43651;-74
2021/11/02 11:45:07;;;;;;;;;;;10.70;94.60;;;;;;4331801;33;44977;-75
2021/11/02 11:47:35;;;;;;;;;;;10.70;94.60;;;;;;4332750;33;27145;-74
2021/11/02 11:50:15;;;;;;;;;;;10.70;94.60;;;;;;4319025;33;44060;-74
2021/11/02 11:52:47;;;;;;;;;;;10.70;94.50;;;;;;4332437;33;43536;-74
2021/11/02 11:55:19;;;;;;;;;;;10.70;94.60;;;;;;4318849;33;32493;-75
2021/11/02 11:57:59;;;;;;;;;;;10.60;94.60;;;;;;4332444;33;20473;-75
2021/11/02 12:00:26;;;;;;;;;;;10.70;94.60;;;;;;4332516;33;36160;-74
2021/11/02 12:02:57;;;;;;;;;;;10.70;94.60;;;;;;4331890;33;37222;-74
2021/11/02 12:05:25;;;;;;;;;;;10.70;94.70;;;;;;4331197;33;42580;-74
2021/11/02 12:07:55;;;;;;;;;;;10.60;94.70;;;;;;4332172;33;44795;-74
2021/11/02 12:10:25;;;;;;;;;;;10.70;94.70;;;;;;4332981;33;20009;-74
2021/11/02 12:12:57;;;;;;;;;;;10.70;94.70;;;;;;4331886;33;40752;-75
2021/11/02 12:15:34;;;;;;;;;;;10.70;94.70;;;;;;4318534;33;43473;-75
2021/11/02 12:18:01;;;;;;;;;;;10.70;94.80;;;;;;4318674;33;35562;-74
2021/11/02 12:20:29;;;;;;;;;;;10.60;94.80;;;;;;4331901;33;42943;-74
2021/11/02 12:23:01;;;;;;;;;;;10.70;94.80;;;;;;4331305;33;43606;-74
2021/11/02 12:25:32;;;;;;;;;;;10.70;94.90;;;;;;4332139;33;39825;-75
2021/11/02 12:28:00;;;;;;;;;;;10.60;94.80;;;;;;4318822;33;44049;-75
2021/11/02 12:30:27;;;;;;;;;;;10.60;94.80;;;;;;4331677;33;44715;-74
2021/11/02 12:32:57;;;;;;;;;;;10.60;95.00;;;;;;4330524;33;44641;-74
2021/11/02 12:35:38;;;;;;;;;;;10.60;95.00;;;;;;4331912;33;34028;-75
2021/11/02 12:38:05;;;;;;;;;;;10.60;95.00;;;;;;4319683;33;20025;-74
2021/11/02 12:40:34;;;;;;;;;;;10.50;95.00;;;;;;4332702;33;20061;-75
2021/11/02 12:43:26;;;;;;;;;;;10.60;95.10;;;;;;4330718;33;42155;-75
2021/11/02 12:45:54;;;;;;;;;;;10.50;95.10;;;;;;4331585;33;38121;-75
2021/11/02 12:48:22;;;;;;;;;;;10.50;95.10;;;;;;4317513;33;43507;-75
2021/11/02 12:51:19;;;;;;;;;;;10.60;95.20;;;;;;4331685;33;31611;-75
2021/11/02 12:53:49;;;;;;;;;;;10.60;95.20;;;;;;4306601;33;25210;-75
2021/11/02 12:56:17;;;;;;;;;;;10.60;95.50;;;;;;4318000;33;39074;-75
2021/11/02 12:58:47;;;;;;;;;;;10.60;95.10;;;;;;4331790;33;33757;-75
2021/11/02 13:01:34;;;;;;;;;;;10.60;95.10;;;;;;4330715;33;44990;-75
2021/11/02 13:04:05;;;;;;;;;;;10.60;95.10;;;;;;4317999;33;40885;-75
2021/11/02 13:06:51;;;;;;;;;;;10.60;95.10;;;;;;4330470;33;32824;-74
2021/11/02 13:09:32;;;;;;;;;;;10.60;95.10;;;;;;4317925;33;43976;-74
2021/11/02 13:12:05;;;;;;;;;;;10.60;95.20;;;;;;4330996;33;20106;-74
2021/11/02 13:14:39;;;;;;;;;;;10.60;95.20;;;;;;4318535;33;22444;-75
2021/11/02 13:17:07;;;;;;;;;;;10.60;95.30;;;;;;4317305;33;44954;-75
2021/11/02 13:19:38;;;;;;;;;;;10.60;95.30;;;;;;4331592;33;20043;-74
2021/11/02 13:22:10;;;;;;;;;;;10.60;95.30;;;;;;4317691;33;31183;-75
2021/11/02 13:24:37;;;;;;;;;;;10.70;95.30;;;;;;4317665;33;43399;-75
2021/11/02 13:27:06;;;;;;;;;;;10.70;95.30;;;;;;4317433;33;41401;-75
2021/11/02 13:29:33;;;;;;;;;;;10.70;95.30;;;;;;4330886;33;44096;-75
2021/11/02 13:32:04;;;;;;;;;;;10.70;95.30;;;;;;4317680;33;43952;-75
2021/11/02 13:34:31;;;;;;;;;;;10.70;95.30;;;;;;4317144;33;44725;-75
2021/11/02 13:37:02;;;;;;;;;;;10.80;95.30;;;;;;4331109;33;37218;-74
2021/11/02 13:39:29;;;;;;;;;;;10.70;95.20;;;;;;4329916;33;45483;-75
2021/11/02 13:41:57;;;;;;;;;;;10.70;95.20;;;;;;4330411;33;44418;-75
2021/11/02 13:44:25;;;;;;;;;;;10.80;95.30;;;;;;4317465;33;43918;-75
2021/11/02 13:46:58;;;;;;;;;;;10.80;95.30;;;;;;4317583;33;36625;-75
2021/11/02 13:49:25;;;;;;;;;;;10.80;95.20;;;;;;4330912;33;44674;-75
2021/11/02 13:51:52;;;;;;;;;;;10.70;95.20;;;;;;4317195;33;41241;-75
2021/11/02 13:54:21;;;;;;;;;;;10.80;95.20;;;;;;4304950;33;43057;-75
2021/11/02 13:56:48;;;;;;;;;;;10.80;95.20;;;;;;4330708;33;43353;-75
2021/11/02 13:59:15;;;;;;;;;;;10.80;95.20;;;;;;4319755;33;44252;-75
2021/11/02 14:01:47;;;;;;;;;;;10.80;95.20;;;;;;4321810;33;43790;-75
2021/11/02 14:04:16;;;;;;;;;;;10.80;95.10;;;;;;4310144;33;44867;-75
2021/11/02 14:06:44;;;;;;;;;;;10.80;95.20;;;;;;4336321;33;20076;-75
2021/11/02 14:09:17;;;;;;;;;;;10.80;95.20;;;;;;4336319;33;20404;-75
2021/11/02 14:11:44;;;;;;;;;;;10.80;95.20;;;;;;4323167;33;20068;-75
2021/11/02 14:14:29;;;;;;;;;;;10.80;95.10;;;;;;4336358;33;20020;-75
2021/11/02 14:16:57;;;;;;;;;;;10.80;95.10;;;;;;4336230;33;20013;-75
2021/11/02 14:19:33;;;;;;;;;;;10.70;95.10;;;;;;4322351;33;23134;-74
2021/11/02 14:22:07;;;;;;;;;;;10.70;95.10;;;;;;4336061;33;23859;-75
2021/11/02 14:24:36;;;;;;;;;;;10.70;95.10;;;;;;4335872;33;20021;-75
2021/11/02 14:27:05;;;;;;;;;;;10.70;95.10;;;;;;4335594;33;20065;-75
2021/11/02 14:29:51;;;;;;;;;;;10.70;95.10;;;;;;4322939;33;20061;-75
2021/11/02 14:32:37;;;;;;;;;;;10.60;95.10;;;;;;4336436;33;20005;-75
2021/11/02 14:35:11;;;;;;;;;;;10.60;95.10;;;;;;4323156;33;20022;-75
2021/11/02 14:37:48;;;;;;;;;;;10.60;95.20;;;;;;4323506;33;19998;-75
2021/11/02 14:40:33;;;;;;;;;;;10.60;95.10;;;;;;4336274;33;20010;-75
2021/11/02 14:43:14;;;;;;;;;;;10.60;95.10;;;;;;4322861;33;20457;-75
2021/11/02 14:45:45;;;;;;;;;;;10.60;95.10;;;;;;4309664;33;35362;-75
2021/11/02 14:48:32;;;;;;;;;;;10.60;95.10;;;;;;4335363;33;44475;-75
2021/11/02 14:51:00;;;;;;;;;;;10.60;95.10;;;;;;4336246;33;20464;-75
2021/11/02 14:53:35;;;;;;;;;;;10.50;95.10;;;;;;4336119;33;20001;-75
2021/11/02 14:56:06;;;;;;;;;;;10.60;95.10;;;;;;4336477;33;20346;-75
2021/11/02 15:01:10;;;;;;;;;;;10.50;95.10;;;;;;4335996;33;20017;-75
2021/11/02 15:03:41;;;;;;;;;;;10.50;95.10;;;;;;4335578;33;20024;-75
2021/11/02 15:06:11;;;;;;;;;;;10.50;95.10;;;;;;4323091;33;20012;-75
2021/11/02 15:08:40;;;;;;;;;;;10.50;95.10;;;;;;4335871;33;20015;-75
2021/11/02 15:11:09;;;;;;;;;;;10.50;95.10;;;;;;4320761;33;20012;-75
2021/11/02 15:13:39;;;;;;;;;;;10.50;95.10;;;;;;4333705;33;20024;-75
2021/11/02 15:16:07;;;;;;;;;;;10.50;95.00;;;;;;4308434;33;20362;-75
2021/11/02 15:18:38;;;;;;;;;;;10.60;95.00;;;;;;4319911;33;20005;-75
2021/11/02 15:21:06;;;;;;;;;;;10.60;94.90;;;;;;4333976;33;20009;-75
2021/11/02 15:23:38;;;;;;;;;;;10.60;94.90;;;;;;4320544;33;20001;-75
2021/11/02 15:26:25;;;;;;;;;;;10.60;94.90;;;;;;4323000;33;20001;-75
2021/11/02 15:28:53;;;;;;;;;;;10.70;94.90;;;;;;4333397;33;20044;-75
2021/11/02 15:31:21;;;;;;;;;;;10.70;94.80;;;;;;4332252;33;20009;-75
2021/11/02 15:33:48;;;;;;;;;;;10.70;94.80;;;;;;4332279;33;20021;-75
2021/11/02 15:36:21;;;;;;;;;;;10.70;94.80;;;;;;4333720;33;20013;-75
2021/11/02 15:38:59;;;;;;;;;;;10.70;94.70;;;;;;4332914;33;20425;-75
2021/11/02 15:41:27;;;;;;;;;;;10.80;94.70;;;;;;4332823;33;20014;-75
2021/11/02 15:43:56;;;;;;;;;;;10.80;94.70;;;;;;4319042;33;43783;-75
2021/11/02 15:46:24;;;;;;;;;;;10.80;94.70;;;;;;4332308;33;44806;-75
2021/11/02 15:48:58;;;;;;;;;;;10.80;94.70;;;;;;4318787;33;38268;-75
2021/11/02 15:51:27;;;;;;;;;;;10.80;94.70;;;;;;4331245;33;44949;-75
2021/11/02 15:53:56;;;;;;;;;;;10.70;94.60;;;;;;4318476;33;39999;-75
2021/11/02 15:56:24;;;;;;;;;;;10.70;94.60;;;;;;4319075;33;43693;-75
2021/11/02 15:59:03;;;;;;;;;;;10.70;94.60;;;;;;4332655;33;32635;-75
2021/11/02 16:01:39;;;;;;;;;;;10.70;94.60;;;;;;4333204;33;20017;-75
2021/11/02 16:04:12;;;;;;;;;;;10.60;94.60;;;;;;4333137;33;20024;-75
2021/11/02 16:06:58;;;;;;;;;;;10.60;94.70;;;;;;4319501;33;20012;-75
2021/11/02 16:09:41;;;;;;;;;;;10.60;94.70;;;;;;4319670;33;20399;-75
2021/11/02 16:12:21;;;;;;;;;;;10.60;94.70;;;;;;4319840;33;20017;-75
2021/11/02 16:15:17;;;;;;;;;;;10.60;94.70;;;;;;4319791;33;20009;-75
2021/11/02 16:17:53;;;;;;;;;;;10.50;94.60;;;;;;4331317;33;20511;-75
2021/11/02 16:20:30;;;;;;;;;;;10.50;94.60;;;;;;4332147;33;20396;-75
2021/11/02 16:23:05;;;;;;;;;;;10.50;94.60;;;;;;4319477;33;20035;-75
2021/11/02 16:25:55;;;;;;;;;;;10.50;94.50;;;;;;4320252;33;40667;-75
2021/11/02 16:28:24;;;;;;;;;;;10.50;94.50;;;;;;4331037;33;36908;-75
2021/11/02 16:30:54;;;;;;;;;;;10.50;94.50;;;;;;4318136;33;36865;-75
2021/11/02 16:33:32;;;;;;;;;;;10.50;94.40;;;;;;4331866;33;38586;-75
2021/11/02 16:36:12;;;;;;;;;;;10.50;94.30;;;;;;4331820;33;36771;-75
2021/11/02 16:38:39;;;;;;;;;;;10.50;94.30;;;;;;4330789;33;43149;-75
2021/11/02 16:41:23;;;;;;;;;;;10.50;94.20;;;;;;4331608;33;37351;-75
2021/11/02 16:43:53;;;;;;;;;;;10.50;94.20;;;;;;4318180;33;41774;-75
2021/11/02 16:46:27;;;;;;;;;;;10.50;94.20;;;;;;4330699;33;31763;-75
2021/11/02 16:49:00;;;;;;;;;;;10.50;94.20;;;;;;4306509;33;20099;-75
2021/11/02 16:51:43;;;;;;;;;;;10.40;94.20;;;;;;4332307;33;20395;-75
2021/11/02 16:54:11;;;;;;;;;;;10.40;94.20;;;;;;4332168;33;20009;-75
2021/11/02 16:56:54;;;;;;;;;;;10.40;94.30;;;;;;4332452;33;20005;-75
2021/11/02 16:59:37;;;;;;;;;;;10.30;94.30;;;;;;4332480;33;20065;-75
2021/11/02 17:02:15;;;;;;;;;;;10.30;94.30;;;;;;4318591;33;20005;-75
2021/11/02 17:04:58;;;;;;;;;;;10.30;94.30;;;;;;4331445;33;20064;-75
2021/11/02 17:07:45;;;;;;;;;;;10.20;94.30;;;;;;4318645;33;20089;-75
2021/11/02 17:10:28;;;;;;;;;;;10.20;94.30;;;;;;4331835;33;20047;-74
2021/11/02 17:12:57;;;;;;;;;;;10.20;94.30;;;;;;4331273;33;20016;-75
2021/11/02 17:15:25;;;;;;;;;;;10.20;94.30;;;;;;4331268;33;31655;-75
2021/11/02 17:17:53;;;;;;;;;;;10.10;94.30;;;;;;4317898;33;44172;-75
2021/11/02 17:20:21;;;;;;;;;;;10.00;94.30;;;;;;4330496;33;42002;-75
2021/11/02 17:22:51;;;;;;;;;;;10.00;94.40;;;;;;4317990;33;44833;-75
2021/11/02 17:25:19;;;;;;;;;;;10.00;94.40;;;;;;4317740;33;37136;-75
2021/11/02 17:27:48;;;;;;;;;;;9.90;94.40;;;;;;4330746;33;34797;-74
2021/11/02 17:30:20;;;;;;;;;;;9.90;94.50;;;;;;4330957;33;31100;-75
2021/11/02 17:32:47;;;;;;;;;;;9.90;94.50;;;;;;4330873;33;40364;-75
2021/11/02 17:35:23;;;;;;;;;;;9.90;94.50;;;;;;4316851;33;42455;-75
2021/11/02 17:37:51;;;;;;;;;;;9.90;94.50;;;;;;4331609;33;26532;-75
2021/11/02 17:40:20;;;;;;;;;;;9.80;94.50;;;;;;4317077;33;44789;-75
2021/11/02 17:42:52;;;;;;;;;;;9.90;94.50;;;;;;4317718;33;35579;-75
2021/11/02 17:45:20;;;;;;;;;;;9.80;94.50;;;;;;4317010;33;44500;-75
2021/11/02 17:47:50;;;;;;;;;;;9.80;94.50;;;;;;4317413;33;43734;-75
2021/11/02 17:50:18;;;;;;;;;;;9.80;94.50;;;;;;4329208;33;45037;-75
2021/11/02 17:52:46;;;;;;;;;;;9.80;94.50;;;;;;4330772;33;39490;-75
2021/11/02 17:55:14;;;;;;;;;;;9.80;94.50;;;;;;4317485;33;41318;-75
2021/11/02 17:57:41;;;;;;;;;;;9.80;94.90;;;;;;4331416;33;20040;-74
2021/11/02 18:00:10;;;;;;;;;;;9.80;94.60;;;;;;4331133;33;20017;-75
2021/11/02 18:02:37;;;;;;;;;;;9.70;94.60;;;;;;4306075;33;20375;-75
2021/11/02 18:05:06;;;;;;;;;;;9.70;94.60;;;;;;4317813;33;20013;-75
2021/11/02 18:07:34;;;;;;;;;;;9.70;94.60;;;;;;4331815;33;20017;-75
2021/11/02 18:10:02;;;;;;;;;;;9.70;94.60;;;;;;4317562;33;20399;-74
2021/11/02 18:12:30;;;;;;;;;;;9.70;94.60;;;;;;4330981;33;20018;-74
2021/11/02 18:14:58;;;;;;;;;;;9.70;94.60;;;;;;4330432;33;20411;-74
2021/11/02 18:17:28;;;;;;;;;;;9.70;94.60;;;;;;4331770;33;20057;-74
2021/11/02 18:19:56;;;;;;;;;;;9.70;94.60;;;;;;4330347;33;19997;-74
2021/11/02 18:22:24;;;;;;;;;;;9.70;94.70;;;;;;4318065;33;20016;-74
2021/11/02 18:24:55;;;;;;;;;;;9.70;94.70;;;;;;4317741;33;22470;-74
2021/11/02 18:27:23;;;;;;;;;;;9.70;94.70;;;;;;4318361;33;20057;-74
2021/11/02 18:29:51;;;;;;;;;;;9.70;94.70;;;;;;4330898;33;21998;-74
2021/11/02 18:32:19;;;;;;;;;;;9.70;94.70;;;;;;4331422;33;20342;-74
2021/11/02 18:34:47;;;;;;;;;;;9.60;94.70;;;;;;4331325;33;20088;-75
2021/11/02 18:37:15;;;;;;;;;;;9.60;95.00;;;;;;4318357;33;20094;-75
2021/11/02 18:39:42;;;;;;;;;;;9.60;94.70;;;;;;4331426;33;20013;-74
2021/11/02 18:42:10;;;;;;;;;;;9.50;94.70;;;;;;4317814;33;20016;-74
2021/11/02 18:44:38;;;;;;;;;;;9.50;94.70;;;;;;4318229;33;20423;-75
2021/11/02 18:47:06;;;;;;;;;;;9.60;94.80;;;;;;4332971;33;20005;-75
2021/11/02 18:49:33;;;;;;;;;;;9.60;94.70;;;;;;4334301;33;20005;-75
2021/11/02 18:52:01;;;;;;;;;;;9.60;94.80;;;;;;4332968;33;20412;-74
2021/11/02 18:54:29;;;;;;;;;;;9.60;94.80;;;;;;4334007;33;20045;-75
2021/11/02 18:56:58;;;;;;;;;;;9.60;94.70;;;;;;4332711;33;20023;-75
2021/11/02 18:59:25;;;;;;;;;;;9.60;94.70;;;;;;4320445;33;20024;-75
2021/11/02 19:01:52;;;;;;;;;;;9.60;94.70;;;;;;4631420;27;20065;-74
2021/11/02 19:04:20;;;;;;;;;;;9.60;94.70;;;;;;4332267;33;20029;-75
2021/11/02 19:06:47;;;;;;;;;;;9.60;94.60;;;;;;4333432;33;20016;-74
2021/11/02 19:09:14;;;;;;;;;;;9.60;94.60;;;;;;4333863;33;20378;-75
2021/11/02 19:11:41;;;;;;;;;;;9.60;94.60;;;;;;4331941;33;20047;-74
2021/11/02 19:14:11;;;;;;;;;;;9.60;94.60;;;;;;4320057;33;20013;-75
2021/11/02 19:16:40;;;;;;;;;;;9.60;94.60;;;;;;4333110;33;20048;-74
2021/11/02 19:19:08;;;;;;;;;;;9.60;94.60;;;;;;4332535;33;20024;-75
2021/11/02 19:21:35;;;;;;;;;;;9.60;94.60;;;;;;4333720;33;20280;-74
2021/11/02 19:24:03;;;;;;;;;;;9.60;94.50;;;;;;4332248;33;20402;-74
2021/11/02 19:26:30;;;;;;;;;;;9.60;94.50;;;;;;4332081;33;20024;-75
2021/11/02 19:28:58;;;;;;;;;;;9.60;94.50;;;;;;4332093;33;20410;-75
2021/11/02 19:31:25;;;;;;;;;;;9.60;94.50;;;;;;4319511;33;20009;-75
2021/11/02 19:33:53;;;;;;;;;;;9.60;94.50;;;;;;4333469;33;20452;-74
2021/11/02 19:36:21;;;;;;;;;;;9.60;94.50;;;;;;4333054;33;20010;-74
2021/11/02 19:38:48;;;;;;;;;;;9.60;94.50;;;;;;4333345;33;20023;-74
2021/11/02 19:41:16;;;;;;;;;;;9.60;94.50;;;;;;4319878;33;20076;-75
2021/11/02 19:43:52;;;;;;;;;;;9.60;94.50;;;;;;4320299;33;20001;-75
2021/11/02 19:46:20;;;;;;;;;;;9.60;94.40;;;;;;4331462;33;39885;-74
2021/11/02 19:48:47;;;;;;;;;;;9.60;94.40;;;;;;4332168;33;42572;-74